createdAt,value
2019-02-15T00:00:29.272Z,6.61
2019-02-15T00:02:36.267Z,6.61
2019-02-15T00:04:43.317Z,6.61
2019-02-15T00:06:50.471Z,6.62
2019-02-15T00:08:57.548Z,6.62
2019-02-15T00:11:04.496Z,6.60
2019-02-15T00:13:13.644Z,6.59
2019-02-15T00:15:20.391Z,6.59
2019-02-15T00:17:45.773Z,6.57
2019-02-15T00:19:54.144Z,6.56
2019-02-15T00:22:00.974Z,6.53
2019-02-15T00:24:07.937Z,6.53
2019-02-15T00:26:16.564Z,6.52
2019-02-15T00:28:23.525Z,6.50
2019-02-15T00:30:30.806Z,6.48
2019-02-15T00:32:38.274Z,6.47
2019-02-15T00:34:45.177Z,6.47
2019-02-15T00:36:52.174Z,6.44
2019-02-15T00:38:59.967Z,6.39
2019-02-15T00:41:08.302Z,6.39
2019-02-15T00:43:22.136Z,6.39
2019-02-15T00:45:30.007Z,6.35
2019-02-15T00:47:38.785Z,6.31
2019-02-15T00:49:46.603Z,6.26
2019-02-15T00:51:58.498Z,6.19
2019-02-15T00:54:06.960Z,6.15
2019-02-15T00:56:20.199Z,6.11
2019-02-15T00:58:27.234Z,6.08
2019-02-15T01:00:52.093Z,6.03
2019-02-15T01:03:04.212Z,5.99
2019-02-15T01:05:29.501Z,5.93
2019-02-15T01:07:42.854Z,5.85
2019-02-15T01:09:54.939Z,5.78
2019-02-15T01:12:09.274Z,5.74
2019-02-15T01:14:17.713Z,5.67
2019-02-15T01:16:24.895Z,5.63
2019-02-15T01:18:31.767Z,5.57
2019-02-15T01:20:39.005Z,5.52
2019-02-15T01:22:46.104Z,5.50
2019-02-15T01:24:53.421Z,5.48
2019-02-15T01:27:01.833Z,5.46
2019-02-15T01:29:11.140Z,5.43
2019-02-15T01:31:22.830Z,5.39
2019-02-15T01:33:29.269Z,5.39
2019-02-15T01:35:49.599Z,5.41
2019-02-15T01:38:02.644Z,5.45
2019-02-15T01:40:24.628Z,5.44
2019-02-15T01:42:33.258Z,5.44
2019-02-15T01:44:55.088Z,5.45
2019-02-15T01:47:03.744Z,5.48
2019-02-15T01:49:10.917Z,5.49
2019-02-15T01:51:18.303Z,5.49
2019-02-15T01:53:25.270Z,5.50
2019-02-15T01:55:32.455Z,5.52
2019-02-15T01:57:39.438Z,5.54
2019-02-15T01:59:47.752Z,5.58
2019-02-15T02:01:56.471Z,5.62
2019-02-15T02:04:03.870Z,5.65
2019-02-15T02:06:10.686Z,5.68
2019-02-15T02:08:19.109Z,5.70
2019-02-15T02:10:26.754Z,5.72
2019-02-15T02:12:34.136Z,5.75
2019-02-15T02:14:41.523Z,5.78
2019-02-15T02:16:48.767Z,5.80
2019-02-15T02:18:55.870Z,5.82
2019-02-15T02:21:03.182Z,5.83
2019-02-15T02:23:13.348Z,5.83
2019-02-15T02:25:22.129Z,5.84
2019-02-15T02:27:29.312Z,5.86
2019-02-15T02:29:36.634Z,5.88
2019-02-15T02:31:44.017Z,5.89
2019-02-15T02:33:52.472Z,5.90
2019-02-15T02:35:59.990Z,5.92
2019-02-15T02:38:06.884Z,5.90
2019-02-15T02:40:13.905Z,5.89
2019-02-15T02:42:21.073Z,5.89
2019-02-15T02:44:28.153Z,5.88
2019-02-15T02:46:36.262Z,5.87
2019-02-15T02:48:43.166Z,5.83
2019-02-15T02:50:50.416Z,5.76
2019-02-15T02:52:57.606Z,5.66
2019-02-15T02:55:05.265Z,5.53
2019-02-15T02:57:13.197Z,5.40
2019-02-15T02:59:21.739Z,5.30
2019-02-15T03:01:29.697Z,5.17
2019-02-15T03:03:37.053Z,5.07
2019-02-15T03:05:44.163Z,4.96
2019-02-15T03:07:51.150Z,4.83
2019-02-15T03:09:58.044Z,4.73
2019-02-15T03:12:07.246Z,4.66
2019-02-15T03:14:14.422Z,4.56
2019-02-15T03:16:21.869Z,4.49
2019-02-15T03:18:29.414Z,4.45
2019-02-15T03:20:36.495Z,4.45
2019-02-15T03:22:45.510Z,4.45
2019-02-15T03:24:52.888Z,4.42
2019-02-15T03:26:59.777Z,4.40
2019-02-15T03:29:08.388Z,4.38
2019-02-15T03:31:15.564Z,4.37
2019-02-15T03:33:23.397Z,4.34
2019-02-15T03:35:38.253Z,4.31
2019-02-15T03:37:48.489Z,4.27
2019-02-15T03:39:57.566Z,4.24
2019-02-15T03:42:05.173Z,4.23
2019-02-15T03:44:21.362Z,4.18
2019-02-15T03:46:21.414Z,4.20
2019-02-15T03:48:28.915Z,4.19
2019-02-15T03:50:36.109Z,4.20
2019-02-15T03:52:44.813Z,4.18
2019-02-15T03:54:52.626Z,4.17
2019-02-15T03:57:00.693Z,4.11
2019-02-15T03:59:08.737Z,4.06
2019-02-15T04:01:16.074Z,3.99
2019-02-15T04:03:23.255Z,3.94
2019-02-15T04:05:30.343Z,3.88
2019-02-15T04:07:38.493Z,3.79
2019-02-15T04:09:46.091Z,3.76
2019-02-15T04:11:52.910Z,3.77
2019-02-15T04:14:00.871Z,3.78
2019-02-15T04:16:13.177Z,3.77
2019-02-15T04:18:20.028Z,3.73
2019-02-15T04:20:27.123Z,3.71
2019-02-15T04:22:34.452Z,3.68
2019-02-15T04:24:41.620Z,3.66
2019-02-15T04:26:48.735Z,3.64
2019-02-15T04:28:55.792Z,3.58
2019-02-15T04:31:02.909Z,3.56
2019-02-15T04:33:09.849Z,3.52
2019-02-15T04:35:16.855Z,3.49
2019-02-15T04:37:24.357Z,3.46
2019-02-15T04:39:31.793Z,3.41
2019-02-15T04:41:38.677Z,3.37
2019-02-15T04:43:46.039Z,3.32
2019-02-15T04:45:53.163Z,3.30
2019-02-15T04:48:00.223Z,3.30
2019-02-15T04:50:09.743Z,3.27
2019-02-15T04:52:16.634Z,3.24
2019-02-15T04:54:25.431Z,3.22
2019-02-15T04:56:33.045Z,3.17
2019-02-15T04:58:40.955Z,3.13
2019-02-15T05:00:48.399Z,3.10
2019-02-15T05:02:55.656Z,3.08
2019-02-15T05:05:02.761Z,3.04
2019-02-15T05:07:09.893Z,3.02
2019-02-15T05:09:16.756Z,2.99
2019-02-15T05:11:23.832Z,2.97
2019-02-15T05:13:33.232Z,2.92
2019-02-15T05:15:39.947Z,2.90
2019-02-15T05:17:46.922Z,2.88
2019-02-15T05:19:53.889Z,2.82
2019-02-15T05:22:00.863Z,2.79
2019-02-15T05:24:08.171Z,2.74
2019-02-15T05:26:15.330Z,2.67
2019-02-15T05:28:22.303Z,2.60
2019-02-15T05:30:29.791Z,2.53
2019-02-15T05:32:36.779Z,2.46
2019-02-15T05:34:43.742Z,2.40
2019-02-15T05:36:51.241Z,2.35
2019-02-15T05:38:58.221Z,2.32
2019-02-15T05:41:05.121Z,2.28
2019-02-15T05:43:12.040Z,2.26
2019-02-15T05:45:19.052Z,2.28
2019-02-15T05:47:25.854Z,2.27
2019-02-15T05:49:32.877Z,2.28
2019-02-15T05:51:39.689Z,2.26
2019-02-15T05:53:46.639Z,2.32
2019-02-15T05:55:55.066Z,2.44
2019-02-15T05:58:02.235Z,2.57
2019-02-15T06:00:11.628Z,2.68
2019-02-15T06:02:18.532Z,3.04
2019-02-15T06:04:25.330Z,3.35
2019-02-15T06:06:32.988Z,3.43
2019-02-15T06:08:40.060Z,3.47
2019-02-15T06:10:47.339Z,3.45
2019-02-15T06:12:54.296Z,3.52
2019-02-15T06:15:01.314Z,3.61
2019-02-15T06:17:08.792Z,3.50
2019-02-15T06:19:16.950Z,3.55
2019-02-15T06:21:23.829Z,3.62
2019-02-15T06:23:31.065Z,3.89
2019-02-15T06:25:37.984Z,4.03
2019-02-15T06:27:45.120Z,3.89
2019-02-15T06:29:52.279Z,4.03
2019-02-15T06:32:00.333Z,3.88
2019-02-15T06:34:07.258Z,4.08
2019-02-15T06:36:14.125Z,3.95
2019-02-15T06:38:21.268Z,4.04
2019-02-15T06:40:28.055Z,3.92
2019-02-15T06:42:34.887Z,3.86
2019-02-15T06:44:41.831Z,3.78
2019-02-15T06:46:49.455Z,3.72
2019-02-15T06:48:57.184Z,3.72
2019-02-15T06:51:04.196Z,3.65
2019-02-15T06:53:11.002Z,3.66
2019-02-15T06:55:18.003Z,3.66
2019-02-15T06:57:24.861Z,3.69
2019-02-15T06:59:43.760Z,3.72
2019-02-15T07:01:52.129Z,4.03
2019-02-15T07:04:08.147Z,3.88
2019-02-15T07:06:15.215Z,3.94
2019-02-15T07:08:22.782Z,3.91
2019-02-15T07:10:30.124Z,3.89
2019-02-15T07:12:37.134Z,3.93
2019-02-15T07:14:44.044Z,3.89
2019-02-15T07:16:51.117Z,4.11
2019-02-15T07:18:58.176Z,4.23
2019-02-15T07:21:05.564Z,4.43
2019-02-15T07:23:12.644Z,4.35
2019-02-15T07:25:19.378Z,4.33
2019-02-15T07:27:26.374Z,4.26
2019-02-15T07:29:33.485Z,4.23
2019-02-15T07:31:40.697Z,4.44
2019-02-15T07:33:48.764Z,4.42
2019-02-15T07:36:07.495Z,4.59
2019-02-15T07:38:14.285Z,4.53
2019-02-15T07:40:24.824Z,4.72
2019-02-15T07:44:39.775Z,4.74
2019-02-15T07:46:46.774Z,4.77
2019-02-15T07:48:55.682Z,4.67
2019-02-15T07:51:09.385Z,4.74
2019-02-15T07:53:12.004Z,4.65
2019-02-15T07:55:20.597Z,4.63
2019-02-15T07:57:29.054Z,4.58
2019-02-15T07:59:35.973Z,4.66
2019-02-15T08:01:42.600Z,4.58
2019-02-15T08:03:49.705Z,4.56
2019-02-15T08:05:56.615Z,4.49
2019-02-15T08:08:04.042Z,4.48
2019-02-15T08:10:13.666Z,4.47
2019-02-15T08:12:20.696Z,4.45
2019-02-15T08:14:29.239Z,4.42
2019-02-15T08:16:38.829Z,4.41
2019-02-15T08:18:45.936Z,4.43
2019-02-15T08:20:53.256Z,4.49
2019-02-15T08:23:00.364Z,4.48
2019-02-15T08:25:07.761Z,4.51
2019-02-15T08:27:14.823Z,4.57
2019-02-15T08:29:21.806Z,4.62
2019-02-15T08:31:28.311Z,4.67
2019-02-15T08:33:35.441Z,4.74
2019-02-15T08:35:42.332Z,4.72
2019-02-15T08:37:49.334Z,4.72
2019-02-15T08:39:59.654Z,4.74
2019-02-15T08:42:06.891Z,4.76
2019-02-15T08:44:13.904Z,4.81
2019-02-15T08:46:21.116Z,4.82
2019-02-15T08:48:29.327Z,4.88
2019-02-15T08:50:35.966Z,4.91
2019-02-15T08:52:42.926Z,4.84
2019-02-15T08:54:50.032Z,4.90
2019-02-15T08:56:56.815Z,4.99
2019-02-15T08:59:03.645Z,5.04
2019-02-15T09:01:13.786Z,5.12
2019-02-15T09:03:22.036Z,5.15
2019-02-15T09:05:29.311Z,5.23
2019-02-15T09:07:35.983Z,5.27
2019-02-15T09:09:44.765Z,5.32
2019-02-15T09:11:52.305Z,5.34
2019-02-15T09:14:00.298Z,5.35
2019-02-15T09:16:10.283Z,5.38
2019-02-15T09:18:16.785Z,5.36
2019-02-15T09:20:23.868Z,5.39
2019-02-15T09:22:30.695Z,5.42
2019-02-15T09:24:37.965Z,5.53
2019-02-15T09:26:46.110Z,5.57
2019-02-15T09:28:54.545Z,5.59
2019-02-15T09:31:03.127Z,5.62
2019-02-15T09:33:12.301Z,5.60
2019-02-15T09:35:21.735Z,5.63
2019-02-15T09:37:28.964Z,5.68
2019-02-15T09:39:35.701Z,5.69
2019-02-15T09:41:44.450Z,5.68
2019-02-15T09:43:51.595Z,5.74
2019-02-15T09:45:59.099Z,5.82
2019-02-15T09:48:06.074Z,5.85
2019-02-15T09:50:13.154Z,5.87
2019-02-15T09:52:21.567Z,5.86
2019-02-15T09:54:28.414Z,5.86
2019-02-15T09:56:34.897Z,5.89
2019-02-15T09:58:41.770Z,5.92
2019-02-15T10:00:48.834Z,5.94
2019-02-15T10:02:55.567Z,5.96
2019-02-15T10:05:02.395Z,6.00
2019-02-15T10:07:09.555Z,6.04
2019-02-15T10:09:16.764Z,6.03
2019-02-15T10:11:23.816Z,6.05
2019-02-15T10:13:30.574Z,6.02
2019-02-15T10:15:39.446Z,6.04
2019-02-15T10:17:46.604Z,6.06
2019-02-15T10:19:53.644Z,6.02
2019-02-15T10:22:01.181Z,6.09
2019-02-15T10:24:08.974Z,6.13
2019-02-15T10:26:15.929Z,6.11
2019-02-15T10:28:22.818Z,6.13
2019-02-15T10:30:30.305Z,6.18
2019-02-15T10:32:37.294Z,6.15
2019-02-15T10:34:44.285Z,6.12
2019-02-15T10:36:51.978Z,6.04
2019-02-15T10:38:59.214Z,5.97
2019-02-15T10:41:06.254Z,5.97
2019-02-15T10:43:13.905Z,6.01
2019-02-15T10:45:20.895Z,6.02
2019-02-15T10:47:29.775Z,5.96
2019-02-15T10:49:36.894Z,5.96
2019-02-15T10:51:44.025Z,6.07
2019-02-15T10:53:51.175Z,5.98
2019-02-15T10:55:59.446Z,5.93
2019-02-15T10:58:06.427Z,5.97
2019-02-15T11:00:22.761Z,6.05
2019-02-15T11:02:29.946Z,6.07
2019-02-15T11:04:37.095Z,6.06
2019-02-15T11:06:43.970Z,6.02
2019-02-15T11:08:50.984Z,6.00
2019-02-15T11:10:57.661Z,5.95
2019-02-15T11:13:04.821Z,5.99
2019-02-15T11:15:18.667Z,5.95
2019-02-15T11:17:25.618Z,5.91
2019-02-15T11:19:32.534Z,5.90
2019-02-15T11:21:39.669Z,5.85
2019-02-15T11:23:46.955Z,5.87
2019-02-15T11:25:54.975Z,5.96
2019-02-15T11:28:02.234Z,5.91
2019-02-15T11:30:19.271Z,5.90
2019-02-15T11:32:26.130Z,5.88
2019-02-15T11:34:34.130Z,5.87
2019-02-15T11:36:49.254Z,5.80
2019-02-15T11:38:58.152Z,5.91
2019-02-15T11:41:10.996Z,5.92
2019-02-15T11:43:15.081Z,5.93
2019-02-15T11:45:24.135Z,5.93
2019-02-15T11:47:31.717Z,5.96
2019-02-15T11:49:38.637Z,5.91
2019-02-15T11:51:45.358Z,5.90
2019-02-15T11:53:52.502Z,5.92
2019-02-15T11:55:59.288Z,5.93
2019-02-15T11:58:06.487Z,5.97
2019-02-15T12:00:36.250Z,5.93
2019-02-15T12:02:44.770Z,5.77
2019-02-15T12:04:55.113Z,5.64
2019-02-15T12:07:03.114Z,5.64
2019-02-15T12:09:10.335Z,5.69
2019-02-15T12:11:17.195Z,5.66
2019-02-15T12:13:24.536Z,5.67
2019-02-15T12:15:31.614Z,5.59
2019-02-15T12:17:39.536Z,5.54
2019-02-15T12:19:47.349Z,5.66
2019-02-15T12:21:54.556Z,5.74
2019-02-15T12:24:01.597Z,5.85
2019-02-15T12:26:08.623Z,5.82
2019-02-15T12:28:15.666Z,5.82
2019-02-15T12:30:23.675Z,5.79
2019-02-15T12:32:30.513Z,5.75
2019-02-15T12:34:37.532Z,5.66
2019-02-15T12:36:44.584Z,5.68
2019-02-15T12:38:51.804Z,5.82
2019-02-15T12:41:00.753Z,5.86
2019-02-15T12:43:07.594Z,6.01
2019-02-15T12:45:18.047Z,6.16
2019-02-15T12:47:27.078Z,6.18
2019-02-15T12:49:34.004Z,6.04
2019-02-15T12:51:41.315Z,6.00
2019-02-15T12:53:48.361Z,5.97
2019-02-15T12:55:55.354Z,5.87
2019-02-15T12:58:03.782Z,6.03
2019-02-15T13:00:16.653Z,6.18
2019-02-15T13:02:23.893Z,6.27
2019-02-15T13:04:31.773Z,6.31
2019-02-15T13:06:38.663Z,6.16
2019-02-15T13:08:45.774Z,6.27
2019-02-15T13:10:52.784Z,6.29
2019-02-15T13:12:59.873Z,6.31
2019-02-15T13:15:08.740Z,6.46
2019-02-15T13:17:24.152Z,6.40
2019-02-15T13:19:25.499Z,6.37
2019-02-15T13:21:32.301Z,6.25
2019-02-15T13:23:39.024Z,6.15
2019-02-15T13:25:47.273Z,6.05
2019-02-15T13:27:54.354Z,6.21
2019-02-15T13:30:01.835Z,6.07
2019-02-15T13:32:09.881Z,6.01
2019-02-15T13:34:16.620Z,5.98
2019-02-15T13:36:24.608Z,6.05
2019-02-15T13:38:31.496Z,5.97
2019-02-15T13:40:41.036Z,6.02
2019-02-15T13:42:47.997Z,5.98
2019-02-15T13:44:59.110Z,5.89
2019-02-15T13:47:06.394Z,6.06
2019-02-15T13:49:14.726Z,6.02
2019-02-15T13:51:21.544Z,5.98
2019-02-15T13:53:28.862Z,6.02
2019-02-15T13:55:38.450Z,5.95
2019-02-15T13:57:45.183Z,6.14
2019-02-15T13:59:52.115Z,6.50
2019-02-15T14:01:58.947Z,6.34
2019-02-15T14:04:05.898Z,6.13
2019-02-15T14:06:12.936Z,5.93
2019-02-15T14:08:21.074Z,5.82
2019-02-15T14:10:27.843Z,5.75
2019-02-15T14:12:34.781Z,5.71
2019-02-15T14:14:42.912Z,5.68
2019-02-15T14:16:50.024Z,5.69
2019-02-15T14:18:57.184Z,5.66
2019-02-15T14:21:04.073Z,5.58
2019-02-15T14:23:11.044Z,5.56
2019-02-15T14:25:19.469Z,5.53
2019-02-15T14:27:26.400Z,5.48
2019-02-15T14:29:33.482Z,5.49
2019-02-15T14:31:40.174Z,5.49
2019-02-15T14:33:48.318Z,5.48
2019-02-15T14:35:55.470Z,5.43
2019-02-15T14:38:02.418Z,5.43
2019-02-15T14:40:12.151Z,5.45
2019-02-15T14:42:20.573Z,5.45
2019-02-15T14:44:28.671Z,5.43
2019-02-15T14:46:35.551Z,5.43
2019-02-15T14:48:42.984Z,5.37
2019-02-15T14:50:50.592Z,5.36
2019-02-15T14:53:00.215Z,5.28
2019-02-15T14:55:11.067Z,5.28
2019-02-15T14:57:18.191Z,5.33
2019-02-15T14:59:25.210Z,5.27
2019-02-15T15:01:31.955Z,5.20
2019-02-15T15:03:38.966Z,5.21
2019-02-15T15:05:47.192Z,5.18
2019-02-15T15:07:59.438Z,5.16
2019-02-15T15:10:10.673Z,5.10
2019-02-15T15:12:17.595Z,5.05
2019-02-15T15:14:25.524Z,5.03
2019-02-15T15:16:32.395Z,5.03
2019-02-15T15:18:39.735Z,4.98
2019-02-15T15:20:46.787Z,4.95
2019-02-15T15:22:55.103Z,4.86
2019-02-15T15:25:02.124Z,4.86
2019-02-15T15:27:09.322Z,4.85
2019-02-15T15:29:16.643Z,4.83
2019-02-15T15:31:24.734Z,4.78
2019-02-15T15:33:31.534Z,4.76
2019-02-15T15:35:38.799Z,4.70
2019-02-15T15:37:48.294Z,4.67
2019-02-15T15:39:55.203Z,4.63
2019-02-15T15:42:02.594Z,4.57
2019-02-15T15:44:09.786Z,4.56
2019-02-15T15:46:17.598Z,4.55
2019-02-15T15:48:24.593Z,4.57
2019-02-15T15:50:31.704Z,4.59
2019-02-15T15:52:38.816Z,4.57
2019-02-15T15:54:45.860Z,4.49
2019-02-15T15:56:52.653Z,4.45
2019-02-15T15:59:00.634Z,4.39
2019-02-15T16:01:07.641Z,4.39
2019-02-15T16:03:14.795Z,4.39
2019-02-15T16:05:21.975Z,4.39
2019-02-15T16:07:29.684Z,4.39
2019-02-15T16:09:37.362Z,4.40
2019-02-15T16:11:44.353Z,4.40
2019-02-15T16:13:52.051Z,4.40
2019-02-15T16:15:59.601Z,4.42
2019-02-15T16:18:06.694Z,4.44
2019-02-15T16:20:14.586Z,4.44
2019-02-15T16:22:21.516Z,4.43
2019-02-15T16:24:28.743Z,4.39
2019-02-15T16:26:35.896Z,4.38
2019-02-15T16:28:43.576Z,4.38
2019-02-15T16:30:50.913Z,4.37
2019-02-15T16:32:58.223Z,4.36
2019-02-15T16:35:05.870Z,4.38
2019-02-15T16:37:13.307Z,4.40
2019-02-15T16:39:20.843Z,4.42
2019-02-15T16:41:28.271Z,4.41
2019-02-15T16:43:36.664Z,4.40
2019-02-15T16:45:44.400Z,4.37
2019-02-15T16:47:51.854Z,4.34
2019-02-15T16:49:58.933Z,4.32
2019-02-15T16:52:08.321Z,4.28
2019-02-15T16:54:15.706Z,4.27
2019-02-15T16:56:23.062Z,4.27
2019-02-15T16:58:31.516Z,4.25
2019-02-15T17:00:40.424Z,4.25
2019-02-15T17:02:47.573Z,4.24
2019-02-15T17:04:56.233Z,4.24
2019-02-15T17:07:05.803Z,4.24
2019-02-15T17:09:14.388Z,4.25
2019-02-15T17:11:21.550Z,4.23
2019-02-15T17:13:29.026Z,4.24
2019-02-15T17:15:38.314Z,4.24
2019-02-15T17:17:45.674Z,4.22
2019-02-15T17:19:52.884Z,4.21
2019-02-15T17:21:59.994Z,4.17
2019-02-15T17:24:07.273Z,4.16
2019-02-15T17:26:21.194Z,4.17
2019-02-15T17:28:23.904Z,4.17
2019-02-15T17:30:31.282Z,4.16
2019-02-15T17:32:38.436Z,4.17
2019-02-15T17:34:47.114Z,4.18
2019-02-15T17:36:55.381Z,4.19
2019-02-15T17:39:02.754Z,4.22
2019-02-15T17:41:11.158Z,4.18
2019-02-15T17:43:18.744Z,4.13
2019-02-15T17:45:26.960Z,4.10
2019-02-15T17:47:35.703Z,4.12
2019-02-15T17:49:43.284Z,4.12
2019-02-15T17:51:50.361Z,4.09
2019-02-15T17:53:58.240Z,4.14
2019-02-15T17:56:05.689Z,4.15
2019-02-15T17:58:12.848Z,4.15
2019-02-15T18:00:22.827Z,4.15
2019-02-15T18:02:30.585Z,4.12
2019-02-15T18:04:38.462Z,4.13
2019-02-15T18:06:45.457Z,4.10
2019-02-15T18:08:52.714Z,4.09
2019-02-15T18:10:59.982Z,4.11
2019-02-15T18:13:07.281Z,4.14
2019-02-15T18:15:14.833Z,4.18
2019-02-15T18:17:22.334Z,4.20
2019-02-15T18:19:29.933Z,4.21
2019-02-15T18:21:37.863Z,4.23
2019-02-15T18:23:45.365Z,4.22
2019-02-15T18:25:52.543Z,4.25
2019-02-15T18:28:00.031Z,4.27
2019-02-15T18:30:13.434Z,4.26
2019-02-15T18:32:21.194Z,4.25
2019-02-15T18:34:28.946Z,4.22
2019-02-15T18:36:36.713Z,4.21
2019-02-15T18:38:44.057Z,4.20
2019-02-15T18:40:51.894Z,4.17
2019-02-15T18:42:59.641Z,4.14
2019-02-15T18:45:10.035Z,4.13
2019-02-15T18:47:17.161Z,4.13
2019-02-15T18:49:25.442Z,4.13
2019-02-15T18:51:33.311Z,4.13
2019-02-15T18:53:40.921Z,4.15
2019-02-15T18:55:48.130Z,4.14
2019-02-15T18:57:55.814Z,4.14
2019-02-15T19:00:03.203Z,4.18
2019-02-15T19:02:10.523Z,4.23
2019-02-15T19:04:18.336Z,4.22
2019-02-15T19:06:25.592Z,4.22
2019-02-15T19:08:32.942Z,4.25
2019-02-15T19:10:40.446Z,4.23
2019-02-15T19:12:47.820Z,4.24
2019-02-15T19:14:55.270Z,4.24
2019-02-15T19:17:02.543Z,4.27
2019-02-15T19:19:10.754Z,4.23
2019-02-15T19:21:17.983Z,4.24
2019-02-15T19:23:25.304Z,4.26
2019-02-15T19:25:32.646Z,4.28
2019-02-15T19:27:41.240Z,4.27
2019-02-15T19:29:48.363Z,4.25
2019-02-15T19:31:57.463Z,4.22
2019-02-15T19:34:04.579Z,4.23
2019-02-15T19:36:11.996Z,4.22
2019-02-15T19:38:20.859Z,4.21
2019-02-15T19:40:33.676Z,4.22
2019-02-15T19:42:41.710Z,4.23
2019-02-15T19:44:48.996Z,4.22
2019-02-15T19:46:56.748Z,4.21
2019-02-15T19:49:08.027Z,4.22
2019-02-15T19:51:15.271Z,4.22
2019-02-15T19:53:43.090Z,4.23
2019-02-15T19:55:50.989Z,4.24
2019-02-15T19:57:58.480Z,4.23
2019-02-15T20:00:08.598Z,4.24
2019-02-15T20:02:16.442Z,4.22
2019-02-15T20:04:24.415Z,4.24
2019-02-15T20:06:31.888Z,4.22
2019-02-15T20:08:39.638Z,4.21
2019-02-15T20:10:47.187Z,4.23
2019-02-15T20:12:54.618Z,4.26
2019-02-15T20:15:02.059Z,4.28
2019-02-15T20:17:10.380Z,4.27
2019-02-15T20:19:18.772Z,4.30
2019-02-15T20:21:26.190Z,4.28
2019-02-15T20:23:34.315Z,4.29
2019-02-15T20:25:42.462Z,4.23
2019-02-15T20:27:49.631Z,4.24
2019-02-15T20:29:57.470Z,4.25
2019-02-15T20:32:05.441Z,4.25
2019-02-15T20:34:12.720Z,4.27
2019-02-15T20:36:20.820Z,4.29
2019-02-15T20:38:28.051Z,4.32
2019-02-15T20:40:35.466Z,4.37
2019-02-15T20:42:42.739Z,4.37
2019-02-15T20:44:50.017Z,4.34
2019-02-15T20:46:57.873Z,4.35
2019-02-15T20:49:05.157Z,4.33
2019-02-15T20:51:12.366Z,4.25
2019-02-15T20:53:19.463Z,4.23
2019-02-15T20:55:26.994Z,4.23
2019-02-15T20:57:34.270Z,4.24
2019-02-15T20:59:41.551Z,4.18
2019-02-15T21:01:49.374Z,4.16
2019-02-15T21:03:56.532Z,4.16
2019-02-15T21:06:04.301Z,4.16
2019-02-15T21:08:13.119Z,4.18
2019-02-15T21:10:20.676Z,4.19
2019-02-15T21:12:28.395Z,4.21
2019-02-15T21:14:35.665Z,4.23
2019-02-15T21:16:43.136Z,4.22
2019-02-15T21:18:52.595Z,4.23
2019-02-15T21:21:01.964Z,4.22
2019-02-15T21:23:09.223Z,4.23
2019-02-15T21:25:17.898Z,4.22
2019-02-15T21:27:25.115Z,4.20
2019-02-15T21:29:32.472Z,4.21
2019-02-15T21:31:40.092Z,4.16
2019-02-15T21:33:47.732Z,4.16
2019-02-15T21:35:54.872Z,4.17
2019-02-15T21:38:02.123Z,4.17
2019-02-15T21:40:18.162Z,4.16
2019-02-15T21:42:25.687Z,4.14
2019-02-15T21:44:32.997Z,4.13
2019-02-15T21:46:40.396Z,4.08
2019-02-15T21:48:47.578Z,4.02
2019-02-15T21:50:56.090Z,4.00
2019-02-15T21:53:03.385Z,4.01
2019-02-15T21:55:17.600Z,4.01
2019-02-15T21:57:24.814Z,4.03
2019-02-15T21:59:32.218Z,4.04
2019-02-15T22:01:39.497Z,4.04
2019-02-15T22:03:46.758Z,4.01
2019-02-15T22:05:54.178Z,4.01
2019-02-15T22:08:01.716Z,4.00
2019-02-15T22:10:11.316Z,4.01
2019-02-15T22:12:19.019Z,4.00
2019-02-15T22:14:26.659Z,3.98
2019-02-15T22:16:34.250Z,3.98
2019-02-15T22:18:42.000Z,3.96
2019-02-15T22:20:49.510Z,3.86
2019-02-15T22:22:57.236Z,3.79
2019-02-15T22:25:04.660Z,3.79
2019-02-15T22:27:11.815Z,3.77
2019-02-15T22:29:19.124Z,3.76
2019-02-15T22:31:26.290Z,3.76
2019-02-15T22:33:33.129Z,3.76
2019-02-15T22:35:40.543Z,3.76
2019-02-15T22:37:48.136Z,3.77
2019-02-15T22:39:55.170Z,3.78
2019-02-15T22:42:01.980Z,3.81
2019-02-15T22:44:08.971Z,3.83
2019-02-15T22:46:16.025Z,3.82
2019-02-15T22:48:23.285Z,3.85
2019-02-15T22:50:35.966Z,3.84
2019-02-15T22:52:38.893Z,3.86
2019-02-15T22:54:46.211Z,3.86
2019-02-15T22:56:53.148Z,3.86
2019-02-15T22:59:00.734Z,3.86
2019-02-15T23:01:15.049Z,3.85
2019-02-15T23:03:25.746Z,3.82
2019-02-15T23:05:32.649Z,3.79
2019-02-15T23:07:39.636Z,3.75
2019-02-15T23:09:46.804Z,3.71
2019-02-15T23:11:55.381Z,3.68
2019-02-15T23:14:03.512Z,3.65
2019-02-15T23:16:10.623Z,3.65
2019-02-15T23:18:19.054Z,3.63
2019-02-15T23:20:26.444Z,3.62
2019-02-15T23:22:33.062Z,3.63
2019-02-15T23:24:39.954Z,3.62
2019-02-15T23:26:46.807Z,3.63
2019-02-15T23:28:53.927Z,3.61
2019-02-15T23:31:01.560Z,3.60
2019-02-15T23:33:08.660Z,3.55
2019-02-15T23:35:15.464Z,3.51
2019-02-15T23:37:22.614Z,3.44
2019-02-15T23:39:29.865Z,3.41
2019-02-15T23:41:36.903Z,3.37
2019-02-15T23:43:44.224Z,3.39
2019-02-15T23:45:51.583Z,3.32
2019-02-15T23:47:58.512Z,3.27
2019-02-15T23:50:06.587Z,3.24
2019-02-15T23:52:15.209Z,3.18
2019-02-15T23:54:22.749Z,3.20
2019-02-15T23:56:29.618Z,3.16
2019-02-15T23:58:38.313Z,3.18
